Terminal Aerodrome Forecast
Issued by NWS

Home | Current Version | Previous Version | Text Only | Print | Product List | Glossary On
Versions: 1 2 3 4 5 6 7 8 9 10 11 12 13 14
208
FTUS41 KCAR 242334
TAFHUL
TAF
KHUL 242334Z 2500/2524 36007KT P6SM BKN050
     FM250200 02004KT P6SM SKC
     FM251500 14009KT P6SM OVC100
     FM252000 14010KT 1SM -SN OVC025
     FM252200 14010KT 1/2SM SN OVC010=

USA.gov is the U.S. government's official web portal to all federal, state and local government web resources and services.